Time;durP1;ratioP1;P1;durP2;ratioP2;P2;SDS_P1;SDS_P2;PMS_P1;PMS_P2;Temp;Humidity;BMP_temperature;BMP_pressure;BME280_temperature;BME280_humidity;BME280_pressure;Samples;Min_cycle;Max_cycle;Signal;HPM_P1;HPM_P2
2023/03/12 00:00:51;;;;;;;;;28.25;27.25;;;;;;;;4976836;28;11634;-82
2023/03/12 00:03:19;;;;;;;;;32.00;31.50;;;;;;;;4974347;28;11606;-82
2023/03/12 00:05:48;;;;;;;;;42.00;37.75;;;;;;;;4974232;28;11623;-83
2023/03/12 00:08:16;;;;;;;;;37.00;34.00;;;;;;;;4973813;28;11647;-83
2023/03/12 00:10:43;;;;;;;;;32.25;29.00;;;;;;;;4977824;28;11679;-82
2023/03/12 00:13:11;;;;;;;;;45.25;39.50;;;;;;;;4969083;28;11651;-83
2023/03/12 00:15:39;;;;;;;;;43.00;36.50;;;;;;;;4976635;28;11681;-82
2023/03/12 00:18:07;;;;;;;;;37.75;36.75;;;;;;;;4969676;28;11623;-84
2023/03/12 00:20:34;;;;;;;;;46.00;38.00;;;;;;;;4971953;28;11695;-83
2023/03/12 00:23:03;;;;;;;;;41.25;37.00;;;;;;;;4972771;28;11647;-82
2023/03/12 00:25:31;;;;;;;;;49.75;39.00;;;;;;;;4976620;28;11617;-83
2023/03/12 00:27:58;;;;;;;;;46.75;36.50;;;;;;;;4970663;28;11628;-82
2023/03/12 00:30:28;;;;;;;;;43.00;38.00;;;;;;;;4969168;28;12451;-82
2023/03/12 00:32:55;;;;;;;;;44.00;38.50;;;;;;;;4971000;28;11638;-83
2023/03/12 00:35:23;;;;;;;;;42.25;35.50;;;;;;;;4973510;28;11656;-82
2023/03/12 00:37:50;;;;;;;;;44.00;38.50;;;;;;;;4974320;28;11651;-82
2023/03/12 00:40:20;;;;;;;;;42.75;38.50;;;;;;;;4973197;28;11603;-82
2023/03/12 00:42:47;;;;;;;;;43.75;37.25;;;;;;;;4970921;28;11645;-82
2023/03/12 00:45:15;;;;;;;;;38.50;37.00;;;;;;;;4968600;28;11646;-84
2023/03/12 00:47:42;;;;;;;;;52.25;41.50;;;;;;;;4968060;28;11654;-83
2023/03/12 00:50:10;;;;;;;;;41.25;38.00;;;;;;;;4977935;28;11638;-82
2023/03/12 00:52:38;;;;;;;;;39.00;35.00;;;;;;;;4972875;28;11603;-82
2023/03/12 00:55:06;;;;;;;;;44.25;38.50;;;;;;;;4969754;28;11679;-83
2023/03/12 00:57:36;;;;;;;;;41.75;37.25;;;;;;;;4975258;28;11632;-84
2023/03/12 01:00:08;;;;;;;;;36.00;34.25;;;;;;;;4971783;28;11597;-83
2023/03/12 01:02:36;;;;;;;;;40.75;37.75;;;;;;;;4979083;28;11685;-82
2023/03/12 01:05:04;;;;;;;;;46.00;40.00;;;;;;;;4978724;28;11774;-82
2023/03/12 01:07:32;;;;;;;;;33.00;30.50;;;;;;;;4974709;28;11626;-82
2023/03/12 01:10:01;;;;;;;;;33.25;32.75;;;;;;;;4973981;28;11641;-83
2023/03/12 01:12:29;;;;;;;;;35.50;30.00;;;;;;;;4975198;28;11637;-82
2023/03/12 01:14:58;;;;;;;;;36.50;34.50;;;;;;;;4974483;28;11620;-83
2023/03/12 01:17:25;;;;;;;;;35.25;34.75;;;;;;;;4976017;28;11685;-82
2023/03/12 01:19:55;;;;;;;;;33.50;28.00;;;;;;;;4979675;28;11681;-84
2023/03/12 01:22:22;;;;;;;;;33.50;27.00;;;;;;;;4981786;28;12251;-82
2023/03/12 01:24:50;;;;;;;;;36.25;33.25;;;;;;;;4981626;28;11668;-81
2023/03/12 01:27:17;;;;;;;;;28.00;25.50;;;;;;;;4978476;28;11708;-82
2023/03/12 01:29:45;;;;;;;;;27.75;24.25;;;;;;;;4979934;28;11660;-82
2023/03/12 01:32:15;;;;;;;;;28.25;28.25;;;;;;;;4980334;28;11560;-83
2023/03/12 01:34:43;;;;;;;;;24.75;23.25;;;;;;;;4978482;28;11766;-82
2023/03/12 01:37:11;;;;;;;;;33.25;30.25;;;;;;;;4980076;28;11684;-82
2023/03/12 01:39:39;;;;;;;;;27.00;27.00;;;;;;;;4971628;28;11589;-84
2023/03/12 01:42:06;;;;;;;;;26.00;21.75;;;;;;;;4973509;28;11561;-82
2023/03/12 01:44:51;;;;;;;;;27.00;22.50;;;;;;;;4975636;28;11562;-82
2023/03/12 01:47:21;;;;;;;;;28.25;27.75;;;;;;;;4980459;28;11560;-83
2023/03/12 01:49:49;;;;;;;;;28.50;22.50;;;;;;;;4982329;28;12336;-82
2023/03/12 01:52:21;;;;;;;;;15.75;15.50;;;;;;;;4972638;28;11555;-81
2023/03/12 01:54:53;;;;;;;;;25.25;22.00;;;;;;;;4979700;28;11515;-83
2023/03/12 01:57:24;;;;;;;;;23.25;19.50;;;;;;;;4981456;28;11559;-82
2023/03/12 01:59:54;;;;;;;;;21.50;18.25;;;;;;;;4979515;28;11603;-82
2023/03/12 02:02:27;;;;;;;;;20.50;19.00;;;;;;;;4986976;28;11560;-82
2023/03/12 02:05:04;;;;;;;;;21.00;18.75;;;;;;;;4972915;28;11552;-83
2023/03/12 02:07:35;;;;;;;;;21.75;20.50;;;;;;;;4976727;28;11537;-83
2023/03/12 02:10:03;;;;;;;;;23.00;19.75;;;;;;;;4981314;28;11542;-82
2023/03/12 02:12:31;;;;;;;;;18.75;18.75;;;;;;;;4980713;28;11570;-83
2023/03/12 02:14:59;;;;;;;;;26.75;23.00;;;;;;;;4977511;28;11670;-84
2023/03/12 02:17:28;;;;;;;;;19.75;17.50;;;;;;;;4970393;28;11560;-82
2023/03/12 02:20:06;;;;;;;;;16.25;16.25;;;;;;;;4982612;28;11580;-83
2023/03/12 02:22:35;;;;;;;;;26.25;21.00;;;;;;;;4972067;28;11547;-82
2023/03/12 02:25:18;;;;;;;;;16.50;16.50;;;;;;;;4971407;28;11601;-83
2023/03/12 02:27:47;;;;;;;;;17.75;16.25;;;;;;;;4977777;28;11560;-82
2023/03/12 02:30:15;;;;;;;;;18.75;16.50;;;;;;;;4972279;28;11562;-82
2023/03/12 02:32:43;;;;;;;;;20.00;17.00;;;;;;;;4975395;28;12312;-83
2023/03/12 02:35:12;;;;;;;;;18.00;14.25;;;;;;;;4973554;28;11581;-82
2023/03/12 02:37:49;;;;;;;;;15.25;15.25;;;;;;;;4957428;28;11558;-83
2023/03/12 02:40:22;;;;;;;;;15.00;14.50;;;;;;;;4976764;28;11571;-83
2023/03/12 02:42:50;;;;;;;;;19.00;16.00;;;;;;;;4979085;28;11581;-83
2023/03/12 02:45:18;;;;;;;;;15.00;14.00;;;;;;;;4978221;28;11566;-82
2023/03/12 02:47:46;;;;;;;;;19.25;14.75;;;;;;;;4977278;28;11599;-83
2023/03/12 02:50:14;;;;;;;;;17.25;14.50;;;;;;;;4976080;28;11536;-82
2023/03/12 02:52:41;;;;;;;;;10.00;10.00;;;;;;;;4972205;28;11572;-82
2023/03/12 02:55:10;;;;;;;;;14.50;14.50;;;;;;;;4980840;28;11520;-82
2023/03/12 02:57:41;;;;;;;;;15.00;11.75;;;;;;;;4978693;28;11529;-82
2023/03/12 03:00:11;;;;;;;;;17.25;13.75;;;;;;;;4978751;28;11519;-82
2023/03/12 03:02:39;;;;;;;;;19.00;16.50;;;;;;;;4973208;28;11709;-82
2023/03/12 03:05:08;;;;;;;;;15.00;12.75;;;;;;;;4973745;28;11344;-82
2023/03/12 03:07:36;;;;;;;;;12.00;12.00;;;;;;;;4973298;28;11272;-82
2023/03/12 03:10:04;;;;;;;;;15.25;13.25;;;;;;;;4967966;28;11223;-83
2023/03/12 03:12:32;;;;;;;;;14.25;10.50;;;;;;;;4971026;28;11224;-82
2023/03/12 03:15:02;;;;;;;;;21.75;12.00;;;;;;;;4973203;28;11207;-83
2023/03/12 03:17:30;;;;;;;;;11.50;11.50;;;;;;;;4977209;28;11183;-82
2023/03/12 03:19:59;;;;;;;;;13.25;11.00;;;;;;;;4972172;28;11215;-82
2023/03/12 03:22:26;;;;;;;;;19.25;16.00;;;;;;;;4971554;28;11317;-82
2023/03/12 03:24:54;;;;;;;;;11.75;8.50;;;;;;;;4970398;28;12115;-81
2023/03/12 03:27:21;;;;;;;;;9.75;8.25;;;;;;;;4974175;28;11665;-82
2023/03/12 03:29:49;;;;;;;;;17.25;12.00;;;;;;;;4972832;28;11130;-82
2023/03/12 03:32:18;;;;;;;;;9.75;9.25;;;;;;;;4972516;28;11215;-83
2023/03/12 03:34:46;;;;;;;;;12.50;11.00;;;;;;;;4966758;28;12041;-82
2023/03/12 03:37:13;;;;;;;;;9.00;8.25;;;;;;;;4975522;28;11160;-83
2023/03/12 03:39:41;;;;;;;;;5.25;4.50;;;;;;;;4969039;28;11173;-84
2023/03/12 03:42:09;;;;;;;;;12.75;12.75;;;;;;;;4970492;28;11012;-83
2023/03/12 03:44:37;;;;;;;;;9.25;8.50;;;;;;;;4969707;28;10941;-83
2023/03/12 03:47:05;;;;;;;;;9.25;6.75;;;;;;;;4971643;28;11037;-81
2023/03/12 03:49:34;;;;;;;;;7.50;7.00;;;;;;;;4951311;28;11121;-81
2023/03/12 03:52:02;;;;;;;;;10.25;10.25;;;;;;;;4969528;28;10902;-82
2023/03/12 03:54:32;;;;;;;;;14.25;9.50;;;;;;;;4970372;28;10912;-82
2023/03/12 03:57:00;;;;;;;;;10.25;9.00;;;;;;;;4973502;28;10918;-83
2023/03/12 03:59:29;;;;;;;;;9.75;8.25;;;;;;;;4970109;28;10847;-82
2023/03/12 04:01:57;;;;;;;;;10.00;8.25;;;;;;;;4973450;28;10908;-83
2023/03/12 04:04:25;;;;;;;;;10.00;9.00;;;;;;;;4978430;28;10883;-82
2023/03/12 04:06:54;;;;;;;;;10.75;9.25;;;;;;;;4977089;28;10835;-82
2023/03/12 04:09:21;;;;;;;;;10.50;9.50;;;;;;;;4972757;28;11602;-82
2023/03/12 04:11:49;;;;;;;;;9.00;8.00;;;;;;;;4973906;28;10840;-82
2023/03/12 04:14:16;;;;;;;;;11.25;10.00;;;;;;;;4974128;28;10717;-83
2023/03/12 04:16:44;;;;;;;;;16.25;9.75;;;;;;;;4974332;28;10817;-83
2023/03/12 04:19:12;;;;;;;;;9.25;7.50;;;;;;;;4968439;28;10920;-82
2023/03/12 04:21:39;;;;;;;;;9.00;6.00;;;;;;;;4974097;28;10790;-82
2023/03/12 04:24:15;;;;;;;;;9.00;7.75;;;;;;;;4978120;28;10867;-81
2023/03/12 04:26:43;;;;;;;;;12.75;6.50;;;;;;;;4981100;28;10788;-81
2023/03/12 04:29:11;;;;;;;;;6.00;6.00;;;;;;;;4970641;28;10763;-82
2023/03/12 04:31:39;;;;;;;;;8.75;6.00;;;;;;;;4976893;28;10840;-82
2023/03/12 04:34:06;;;;;;;;;6.75;5.00;;;;;;;;4980553;28;10722;-82
2023/03/12 04:36:34;;;;;;;;;8.75;7.50;;;;;;;;4977990;28;10745;-82
2023/03/12 04:39:05;;;;;;;;;6.00;6.00;;;;;;;;4980018;28;11361;-82
2023/03/12 04:41:35;;;;;;;;;8.50;5.75;;;;;;;;4975634;28;10786;-83
2023/03/12 04:44:03;;;;;;;;;9.50;6.25;;;;;;;;4971666;28;10677;-82
2023/03/12 04:46:31;;;;;;;;;9.00;5.00;;;;;;;;4976576;28;10884;-82
2023/03/12 04:49:01;;;;;;;;;9.25;6.00;;;;;;;;4972456;28;10827;-82
2023/03/12 04:51:29;;;;;;;;;4.75;4.75;;;;;;;;4979101;28;10735;-82
2023/03/12 04:53:57;;;;;;;;;10.00;8.00;;;;;;;;4972429;28;11640;-83
2023/03/12 04:56:25;;;;;;;;;5.00;5.00;;;;;;;;4969275;28;10779;-81
2023/03/12 04:58:54;;;;;;;;;9.50;5.25;;;;;;;;4974479;28;10752;-82
2023/03/12 05:01:25;;;;;;;;;8.75;5.00;;;;;;;;4975289;28;10907;-83
2023/03/12 05:03:53;;;;;;;;;15.75;7.00;;;;;;;;4972727;28;10892;-82
2023/03/12 05:06:21;;;;;;;;;4.25;3.00;;;;;;;;4974351;28;11624;-83
2023/03/12 05:08:49;;;;;;;;;5.75;4.25;;;;;;;;4972882;28;10810;-85
2023/03/12 05:11:17;;;;;;;;;5.75;4.00;;;;;;;;4971477;28;10674;-83
2023/03/12 05:13:45;;;;;;;;;7.00;3.75;;;;;;;;4978420;28;10691;-82
2023/03/12 05:16:15;;;;;;;;;9.75;6.00;;;;;;;;4979127;28;10661;-82
2023/03/12 05:18:43;;;;;;;;;7.75;5.50;;;;;;;;4976467;28;10818;-83
2023/03/12 05:21:13;;;;;;;;;9.00;7.00;;;;;;;;4973117;28;10785;-82
2023/03/12 05:23:42;;;;;;;;;7.50;4.50;;;;;;;;4976509;28;10857;-83
2023/03/12 05:26:18;;;;;;;;;6.50;5.00;;;;;;;;4970581;28;10818;-82
2023/03/12 05:28:46;;;;;;;;;8.50;5.00;;;;;;;;4969908;28;10812;-81
2023/03/12 05:31:18;;;;;;;;;8.25;5.25;;;;;;;;4975874;28;10944;-80
2023/03/12 05:33:47;;;;;;;;;8.50;8.00;;;;;;;;4969167;28;10886;-80
2023/03/12 05:36:17;;;;;;;;;9.50;8.25;;;;;;;;4979404;28;11042;-81
2023/03/12 05:38:45;;;;;;;;;5.75;5.75;;;;;;;;4982567;28;11123;-81
2023/03/12 05:41:19;;;;;;;;;6.75;4.00;;;;;;;;4981375;28;11899;-82
2023/03/12 05:43:47;;;;;;;;;5.25;5.00;;;;;;;;4978245;28;11138;-81
2023/03/12 05:46:16;;;;;;;;;12.00;8.25;;;;;;;;4976922;28;10916;-82
2023/03/12 05:48:44;;;;;;;;;9.50;4.50;;;;;;;;4952049;28;11100;-82
2023/03/12 05:51:13;;;;;;;;;4.25;4.00;;;;;;;;4975078;28;11809;-82
2023/03/12 05:53:40;;;;;;;;;6.25;4.00;;;;;;;;4967190;28;11205;-81
2023/03/12 05:56:12;;;;;;;;;11.75;5.25;;;;;;;;4972695;28;11152;-82
2023/03/12 05:58:39;;;;;;;;;7.50;4.75;;;;;;;;4980240;28;11141;-81
2023/03/12 06:01:13;;;;;;;;;10.25;4.75;;;;;;;;4979696;28;10915;-80
2023/03/12 06:03:42;;;;;;;;;7.25;5.75;;;;;;;;4980290;28;10791;-81
2023/03/12 06:06:11;;;;;;;;;7.00;6.25;;;;;;;;4974026;28;11059;-80
2023/03/12 06:08:38;;;;;;;;;8.50;5.00;;;;;;;;4981592;28;11000;-81
2023/03/12 06:11:06;;;;;;;;;8.25;7.50;;;;;;;;4982316;28;10937;-82
2023/03/12 06:13:34;;;;;;;;;10.75;6.00;;;;;;;;4979265;28;10926;-85
2023/03/12 06:16:06;;;;;;;;;8.00;8.00;;;;;;;;4977936;28;10903;-82
2023/03/12 06:18:33;;;;;;;;;6.75;4.50;;;;;;;;4975711;28;10843;-82
2023/03/12 06:21:13;;;;;;;;;8.75;3.75;;;;;;;;4977211;28;10774;-74
2023/03/12 06:23:41;;;;;;;;;3.75;3.75;;;;;;;;4973495;28;10838;-80
2023/03/12 06:26:12;;;;;;;;;10.50;7.00;;;;;;;;4983742;28;10715;-79
2023/03/12 06:28:39;;;;;;;;;10.50;8.00;;;;;;;;4970359;28;10844;-81
2023/03/12 06:31:08;;;;;;;;;4.75;4.75;;;;;;;;4974237;28;10735;-80
2023/03/12 06:33:36;;;;;;;;;10.25;4.00;;;;;;;;4968696;28;10871;-79
2023/03/12 06:36:06;;;;;;;;;5.75;3.50;;;;;;;;4975215;28;10816;-78
2023/03/12 06:38:36;;;;;;;;;8.00;5.25;;;;;;;;4969801;28;10827;-81
2023/03/12 06:41:05;;;;;;;;;6.50;5.75;;;;;;;;4976004;28;10742;-80
2023/03/12 06:43:34;;;;;;;;;7.00;3.75;;;;;;;;4972782;28;10800;-75
2023/03/12 06:46:03;;;;;;;;;7.25;4.50;;;;;;;;4976185;28;10934;-76
2023/03/12 06:48:35;;;;;;;;;10.50;6.00;;;;;;;;4969973;28;10794;-76
2023/03/12 06:51:03;;;;;;;;;6.75;4.00;;;;;;;;4976937;28;10877;-76
2023/03/12 06:53:30;;;;;;;;;6.75;5.25;;;;;;;;4974890;28;10639;-75
2023/03/12 06:55:59;;;;;;;;;5.75;4.00;;;;;;;;4974483;28;10771;-75
2023/03/12 06:58:27;;;;;;;;;3.25;3.25;;;;;;;;4972088;28;10653;-76
2023/03/12 07:00:55;;;;;;;;;8.00;5.00;;;;;;;;4976566;28;10736;-77
2023/03/12 07:03:24;;;;;;;;;8.00;4.00;;;;;;;;4975793;28;10695;-77
2023/03/12 07:05:55;;;;;;;;;4.50;4.50;;;;;;;;4971363;28;10928;-76
2023/03/12 07:08:24;;;;;;;;;8.50;5.00;;;;;;;;4971824;28;10711;-77
2023/03/12 07:10:52;;;;;;;;;5.00;3.75;;;;;;;;4970497;28;10643;-75
2023/03/12 07:13:23;;;;;;;;;5.50;4.00;;;;;;;;4967169;28;11469;-77
2023/03/12 07:15:51;;;;;;;;;7.50;4.25;;;;;;;;4970929;28;11366;-76
2023/03/12 07:18:18;;;;;;;;;3.50;3.25;;;;;;;;4968351;28;10556;-77
2023/03/12 07:20:46;;;;;;;;;4.50;4.25;;;;;;;;4972145;28;10600;-77
2023/03/12 07:23:14;;;;;;;;;6.25;4.50;;;;;;;;4973533;28;10639;-77
2023/03/12 07:25:42;;;;;;;;;13.75;5.00;;;;;;;;4977161;28;10702;-76
2023/03/12 07:28:10;;;;;;;;;3.00;2.00;;;;;;;;4975473;28;10574;-79
2023/03/12 07:30:40;;;;;;;;;5.50;4.75;;;;;;;;4974733;28;10726;-80
2023/03/12 07:33:08;;;;;;;;;9.75;5.50;;;;;;;;4975811;28;10729;-79
2023/03/12 07:35:37;;;;;;;;;10.00;5.50;;;;;;;;4972649;28;10631;-78
2023/03/12 07:38:04;;;;;;;;;14.75;6.00;;;;;;;;4966993;28;10660;-77
2023/03/12 07:40:32;;;;;;;;;7.50;5.00;;;;;;;;4972068;28;10849;-77
2023/03/12 07:43:00;;;;;;;;;10.00;8.00;;;;;;;;4976604;28;11012;-77
2023/03/12 07:45:32;;;;;;;;;10.50;10.50;;;;;;;;4973629;28;10850;-78
2023/03/12 07:48:02;;;;;;;;;10.25;6.25;;;;;;;;4968100;28;10914;-77
2023/03/12 07:50:29;;;;;;;;;9.50;9.00;;;;;;;;4972964;28;11623;-78
2023/03/12 07:52:59;;;;;;;;;12.00;7.00;;;;;;;;4975873;28;10816;-78
2023/03/12 07:55:26;;;;;;;;;10.00;8.25;;;;;;;;4978614;28;10822;-75
2023/03/12 07:57:57;;;;;;;;;10.25;8.50;;;;;;;;4969717;28;10883;-74
2023/03/12 08:00:27;;;;;;;;;11.00;11.00;;;;;;;;4973846;28;11121;-79
2023/03/12 08:02:55;;;;;;;;;13.75;9.50;;;;;;;;4975425;28;11162;-78
2023/03/12 08:05:25;;;;;;;;;9.75;5.25;;;;;;;;4973634;28;10994;-77
2023/03/12 08:07:53;;;;;;;;;9.00;9.00;;;;;;;;4969801;28;10818;-76
2023/03/12 08:10:25;;;;;;;;;8.50;6.00;;;;;;;;4969566;28;10838;-76
2023/03/12 08:12:52;;;;;;;;;9.50;9.50;;;;;;;;4979430;28;10644;-76
2023/03/12 08:15:22;;;;;;;;;12.75;9.50;;;;;;;;4971256;28;10974;-76
2023/03/12 08:17:49;;;;;;;;;8.50;5.50;;;;;;;;4972663;28;11455;-76
2023/03/12 08:20:17;;;;;;;;;8.75;5.50;;;;;;;;4975309;28;10973;-75
2023/03/12 08:22:48;;;;;;;;;5.75;5.25;;;;;;;;4973982;28;10594;-76
2023/03/12 08:25:17;;;;;;;;;4.00;4.00;;;;;;;;4969511;28;10847;-76
2023/03/12 08:27:48;;;;;;;;;9.75;4.00;;;;;;;;4971410;28;10503;-77
2023/03/12 08:30:17;;;;;;;;;6.00;4.50;;;;;;;;4971252;28;10493;-77
2023/03/12 08:32:46;;;;;;;;;9.00;5.00;;;;;;;;4974045;28;10362;-76
2023/03/12 08:35:13;;;;;;;;;6.50;5.50;;;;;;;;4976192;28;10210;-76
2023/03/12 08:37:41;;;;;;;;;9.00;6.50;;;;;;;;4971460;28;10189;-77
2023/03/12 08:40:12;;;;;;;;;7.00;4.00;;;;;;;;4976580;28;10320;-78
2023/03/12 08:42:40;;;;;;;;;6.50;2.50;;;;;;;;4971466;28;10120;-77
2023/03/12 08:45:09;;;;;;;;;10.50;5.50;;;;;;;;4974346;28;10192;-77
2023/03/12 08:47:38;;;;;;;;;3.50;2.50;;;;;;;;4973957;28;10567;-77
2023/03/12 08:50:07;;;;;;;;;4.00;4.00;;;;;;;;4975763;28;9959;-78
2023/03/12 08:52:34;;;;;;;;;12.00;4.00;;;;;;;;4969913;28;10097;-77
2023/03/12 08:55:01;;;;;;;;;6.00;2.50;;;;;;;;4975267;28;10070;-78
2023/03/12 08:57:46;;;;;;;;;5.25;3.50;;;;;;;;4979279;28;10072;-75
2023/03/12 09:00:16;;;;;;;;;8.00;5.75;;;;;;;;4967840;28;10688;-76
2023/03/12 09:02:44;;;;;;;;;12.00;4.75;;;;;;;;4969470;28;10065;-78
2023/03/12 09:05:12;;;;;;;;;8.00;3.75;;;;;;;;4972523;28;9869;-78
2023/03/12 09:07:40;;;;;;;;;5.75;4.25;;;;;;;;4973139;28;9619;-78
2023/03/12 09:10:08;;;;;;;;;4.00;3.00;;;;;;;;4976488;28;9891;-79
2023/03/12 09:12:36;;;;;;;;;13.25;5.50;;;;;;;;4973765;28;9711;-78
2023/03/12 09:15:06;;;;;;;;;3.50;3.50;;;;;;;;4976580;28;9808;-77
2023/03/12 09:17:40;;;;;;;;;5.75;3.25;;;;;;;;4974469;28;9582;-77
2023/03/12 09:20:09;;;;;;;;;5.25;3.50;;;;;;;;4975175;28;9732;-80
2023/03/12 09:22:37;;;;;;;;;6.75;5.75;;;;;;;;4977505;28;9570;-83
2023/03/12 09:25:05;;;;;;;;;4.33;4.33;;;;;;;;4978514;28;9469;-77
2023/03/12 09:27:37;;;;;;;;;6.75;4.00;;;;;;;;4981726;28;9406;-79
2023/03/12 09:30:09;;;;;;;;;5.50;5.25;;;;;;;;4984815;28;9414;-78
2023/03/12 09:32:36;;;;;;;;;4.67;3.67;;;;;;;;4977127;28;9468;-77
2023/03/12 09:35:05;;;;;;;;;5.00;4.00;;;;;;;;4974049;28;9340;-76
2023/03/12 09:37:33;;;;;;;;;4.67;4.67;;;;;;;;4973642;28;9411;-75
2023/03/12 09:40:01;;;;;;;;;7.33;5.00;;;;;;;;4970289;28;9346;-74
2023/03/12 09:42:35;;;;;;;;;8.67;3.00;;;;;;;;4976256;28;9296;-77
2023/03/12 09:45:06;;;;;;;;;5.33;4.33;;;;;;;;4975718;28;9460;-74
2023/03/12 09:47:36;;;;;;;;;5.33;3.33;;;;;;;;4974463;28;9544;-77
2023/03/12 09:50:08;;;;;;;;;3.67;2.00;;;;;;;;4977120;28;9271;-74
2023/03/12 09:52:42;;;;;;;;;2.67;2.67;;;;;;;;4976926;28;9377;-76
2023/03/12 09:55:14;;;;;;;;;5.00;3.00;;;;;;;;4977218;28;9263;-77
2023/03/12 09:57:42;;;;;;;;;6.00;2.00;;;;;;;;4983192;28;9365;-77
2023/03/12 10:00:18;;;;;;;;;13.67;3.33;;;;;;;;4973902;28;9500;-76
2023/03/12 10:03:10;;;;;;;;;2.00;1.00;;;;;;;;4975603;28;10124;-77
2023/03/12 10:05:41;;;;;;;;;5.00;3.00;;;;;;;;4977078;28;9361;-75
2023/03/12 10:08:16;;;;;;;;;3.67;3.67;;;;;;;;4976470;28;9446;-76
2023/03/12 10:10:53;;;;;;;;;3.00;2.00;;;;;;;;4972618;28;9504;-76
2023/03/12 10:13:33;;;;;;;;;3.33;3.33;;;;;;;;4968613;28;9434;-76
2023/03/12 10:16:13;;;;;;;;;5.00;3.00;;;;;;;;4967304;28;9346;-75
2023/03/12 10:18:57;;;;;;;;;8.33;3.33;;;;;;;;4979747;28;9372;-80
2023/03/12 10:21:29;;;;;;;;;4.00;1.00;;;;;;;;4972583;28;9474;-75
2023/03/12 10:24:07;;;;;;;;;7.00;4.00;;;;;;;;4973180;28;9327;-74
2023/03/12 10:26:42;;;;;;;;;4.33;4.00;;;;;;;;4969339;28;9338;-75
2023/03/12 10:29:13;;;;;;;;;3.00;3.00;;;;;;;;4969199;28;9362;-75
2023/03/12 10:31:51;;;;;;;;;4.25;2.75;;;;;;;;4972122;28;8875;-77
2023/03/12 10:34:23;;;;;;;;;8.25;2.00;;;;;;;;4969349;28;8853;-74
2023/03/12 10:36:51;;;;;;;;;4.00;3.00;;;;;;;;4972277;28;8916;-75
2023/03/12 10:39:20;;;;;;;;;7.25;3.75;;;;;;;;4967840;28;9016;-77
2023/03/12 10:41:48;;;;;;;;;4.67;3.00;;;;;;;;4973609;28;8869;-75
2023/03/12 10:44:22;;;;;;;;;5.33;3.67;;;;;;;;4975184;28;9734;-75
2023/03/12 10:47:10;;;;;;;;;5.00;3.00;;;;;;;;4977757;28;9067;-76
2023/03/12 10:49:38;;;;;;;;;2.25;2.25;;;;;;;;4971276;28;8877;-75
2023/03/12 10:52:13;;;;;;;;;6.75;3.75;;;;;;;;4971744;28;9722;-74
2023/03/12 10:54:43;;;;;;;;;5.25;3.25;;;;;;;;4977997;28;8853;-75
2023/03/12 10:57:12;;;;;;;;;7.00;4.33;;;;;;;;4975496;28;8986;-75
2023/03/12 10:59:42;;;;;;;;;5.75;3.75;;;;;;;;4974783;28;9036;-75
2023/03/12 11:02:31;;;;;;;;;4.25;3.00;;;;;;;;4955061;28;8858;-76
2023/03/12 11:05:00;;;;;;;;;5.50;1.25;;;;;;;;4973933;28;8863;-74
2023/03/12 11:07:29;;;;;;;;;5.25;4.25;;;;;;;;4974908;28;8866;-75
2023/03/12 11:10:17;;;;;;;;;3.00;2.25;;;;;;;;4973968;28;8885;-75
2023/03/12 11:12:54;;;;;;;;;2.00;2.00;;;;;;;;4977692;28;8896;-77
2023/03/12 11:15:24;;;;;;;;;5.50;3.25;;;;;;;;4980220;28;8850;-75
2023/03/12 11:18:20;;;;;;;;;3.50;3.00;;;;;;;;4986464;28;8953;-78
2023/03/12 11:20:49;;;;;;;;;3.50;2.00;;;;;;;;4981054;28;8943;-77
2023/03/12 11:23:18;;;;;;;;;3.00;3.00;;;;;;;;4979721;28;8956;-80
2023/03/12 11:25:53;;;;;;;;;5.50;1.00;;;;;;;;4975658;28;8849;-77
2023/03/12 11:28:25;;;;;;;;;4.75;1.75;;;;;;;;4968835;28;8881;-78
2023/03/12 11:31:03;;;;;;;;;1.25;1.25;;;;;;;;4971866;28;8951;-80
2023/03/12 11:33:33;;;;;;;;;3.25;1.50;;;;;;;;4969342;28;8853;-77
2023/03/12 11:36:14;;;;;;;;;5.75;3.00;;;;;;;;4973450;28;8873;-79
2023/03/12 11:38:46;;;;;;;;;6.50;1.75;;;;;;;;4968109;28;8869;-78
2023/03/12 11:41:24;;;;;;;;;3.00;2.75;;;;;;;;4969778;28;8909;-77
2023/03/12 11:44:15;;;;;;;;;2.00;2.00;;;;;;;;4974085;28;8908;-76
2023/03/12 11:46:55;;;;;;;;;8.25;4.25;;;;;;;;4970915;28;8862;-78
2023/03/12 11:49:35;;;;;;;;;3.50;2.50;;;;;;;;4986976;28;8879;-77
2023/03/12 11:52:06;;;;;;;;;1.25;1.00;;;;;;;;4973788;28;8911;-79
2023/03/12 11:55:01;;;;;;;;;3.25;1.50;;;;;;;;4969443;28;8907;-78
2023/03/12 11:57:36;;;;;;;;;3.75;2.00;;;;;;;;4962779;28;8877;-79
2023/03/12 12:00:14;;;;;;;;;4.50;3.25;;;;;;;;4972971;28;8841;-79
2023/03/12 12:03:11;;;;;;;;;3.50;2.75;;;;;;;;4966118;28;8874;-79
2023/03/12 12:05:45;;;;;;;;;6.00;2.75;;;;;;;;4951790;28;8864;-75
2023/03/12 12:08:29;;;;;;;;;4.00;3.25;;;;;;;;4973911;28;8873;-76
2023/03/12 12:11:04;;;;;;;;;3.50;2.75;;;;;;;;4952463;28;8916;-75
2023/03/12 12:13:40;;;;;;;;;4.00;1.25;;;;;;;;4968514;28;8857;-74
2023/03/12 12:16:29;;;;;;;;;5.50;4.00;;;;;;;;4971703;28;8869;-73
2023/03/12 12:19:06;;;;;;;;;2.75;2.50;;;;;;;;4984373;28;9620;-75
2023/03/12 12:21:45;;;;;;;;;7.00;2.00;;;;;;;;4975036;28;8894;-74
2023/03/12 12:24:25;;;;;;;;;5.00;4.25;;;;;;;;4969635;28;8874;-73
2023/03/12 12:26:58;;;;;;;;;6.50;3.25;;;;;;;;4967850;28;8888;-74
2023/03/12 12:29:34;;;;;;;;;3.25;2.00;;;;;;;;4968542;28;8900;-72
2023/03/12 12:32:03;;;;;;;;;2.75;2.25;;;;;;;;4975841;28;8866;-74
2023/03/12 12:34:44;;;;;;;;;10.75;4.00;;;;;;;;4972221;28;8872;-73
2023/03/12 12:37:33;;;;;;;;;3.75;2.00;;;;;;;;4970871;28;8884;-74
2023/03/12 12:40:10;;;;;;;;;2.25;1.00;;;;;;;;4962183;28;8864;-73
2023/03/12 12:42:53;;;;;;;;;5.25;2.25;;;;;;;;4965600;28;8873;-76
2023/03/12 12:45:24;;;;;;;;;6.00;3.00;;;;;;;;4972135;28;8901;-76
2023/03/12 12:48:03;;;;;;;;;5.50;2.50;;;;;;;;4968734;28;8878;-76
2023/03/12 12:50:34;;;;;;;;;3.00;2.50;;;;;;;;4971120;28;8963;-74
2023/03/12 12:53:11;;;;;;;;;6.00;2.50;;;;;;;;4973533;28;8875;-77
2023/03/12 12:56:00;;;;;;;;;2.00;2.00;;;;;;;;4970035;28;8896;-76
2023/03/12 12:58:44;;;;;;;;;7.25;4.50;;;;;;;;4972360;28;8911;-78
2023/03/12 13:01:15;;;;;;;;;2.75;1.00;;;;;;;;4969818;28;8877;-75
2023/03/12 13:03:46;;;;;;;;;3.75;2.25;;;;;;;;4969047;28;8869;-75
2023/03/12 13:06:13;;;;;;;;;2.00;2.00;;;;;;;;4969922;28;8905;-74
2023/03/12 13:09:13;;;;;;;;;4.50;3.00;;;;;;;;4974785;28;8897;-75
2023/03/12 13:11:46;;;;;;;;;4.00;3.25;;;;;;;;4970487;28;8865;-75
2023/03/12 13:14:35;;;;;;;;;4.50;3.50;;;;;;;;4972050;28;9659;-76
2023/03/12 13:17:30;;;;;;;;;5.00;2.00;;;;;;;;4970445;28;8896;-75
2023/03/12 13:20:12;;;;;;;;;5.00;2.50;;;;;;;;4970011;28;9691;-75
2023/03/12 13:22:58;;;;;;;;;3.50;3.50;;;;;;;;4971519;28;8861;-75
2023/03/12 13:25:37;;;;;;;;;1.00;1.00;;;;;;;;4964118;28;8909;-76
2023/03/12 13:28:31;;;;;;;;;2.50;1.75;;;;;;;;4970426;28;8993;-75
2023/03/12 13:30:59;;;;;;;;;6.33;2.00;;;;;;;;4972209;28;9474;-76
2023/03/12 13:33:45;;;;;;;;;7.00;4.00;;;;;;;;4972909;28;8857;-75
2023/03/12 13:36:24;;;;;;;;;4.50;2.75;;;;;;;;4970988;28;8897;-75
2023/03/12 13:39:00;;;;;;;;;1.75;1.75;;;;;;;;4974312;28;8861;-75
2023/03/12 13:42:02;;;;;;;;;6.75;2.00;;;;;;;;4973413;28;8849;-76
2023/03/12 13:44:43;;;;;;;;;3.25;2.00;;;;;;;;4972348;28;8912;-75
2023/03/12 13:47:22;;;;;;;;;3.75;1.00;;;;;;;;4967981;28;8904;-76
2023/03/12 13:49:55;;;;;;;;;3.00;3.00;;;;;;;;4968557;28;9644;-76
2023/03/12 13:52:26;;;;;;;;;2.75;2.75;;;;;;;;4969757;28;9000;-79
2023/03/12 13:55:02;;;;;;;;;2.50;2.00;;;;;;;;4977895;28;8963;-77
2023/03/12 13:57:46;;;;;;;;;3.25;2.50;;;;;;;;4981040;28;8883;-82
2023/03/12 14:00:18;;;;;;;;;5.00;2.75;;;;;;;;4979820;28;9660;-81
2023/03/12 14:02:52;;;;;;;;;5.50;3.00;;;;;;;;4994863;28;8875;-84
2023/03/12 14:05:22;;;;;;;;;4.50;3.00;;;;;;;;4976735;28;8882;-83
2023/03/12 14:08:08;;;;;;;;;5.25;2.50;;;;;;;;4976943;28;8945;-83
2023/03/12 14:10:47;;;;;;;;;2.75;2.75;;;;;;;;4970475;28;8861;-84
2023/03/12 14:13:34;;;;;;;;;1.25;1.00;;;;;;;;4976480;28;8955;-85
2023/03/12 14:16:08;;;;;;;;;6.50;2.50;;;;;;;;4974017;28;8897;-84
2023/03/12 14:18:44;;;;;;;;;1.50;1.50;;;;;;;;4973895;28;8876;-83
2023/03/12 14:21:16;;;;;;;;;3.75;3.75;;;;;;;;4981163;28;8936;-84
2023/03/12 14:23:47;;;;;;;;;2.50;2.00;;;;;;;;4976002;28;9005;-81
2023/03/12 14:26:23;;;;;;;;;4.25;1.75;;;;;;;;4979118;28;8882;-82
2023/03/12 14:28:59;;;;;;;;;2.00;2.00;;;;;;;;4971533;28;8869;-81
2023/03/12 14:31:27;;;;;;;;;2.00;1.00;;;;;;;;4974600;28;8877;-84
2023/03/12 14:33:57;;;;;;;;;7.50;1.75;;;;;;;;4980352;28;9000;-79
2023/03/12 14:36:28;;;;;;;;;1.00;1.00;;;;;;;;4969445;28;8849;-82
2023/03/12 14:39:00;;;;;;;;;3.50;0.00;;;;;;;;4975207;28;8841;-74
2023/03/12 14:41:31;;;;;;;;;1.75;1.75;;;;;;;;4975676;28;8853;-73
2023/03/12 14:44:07;;;;;;;;;3.75;2.00;;;;;;;;4972835;28;8881;-75
2023/03/12 14:46:34;;;;;;;;;1.75;1.00;;;;;;;;4973353;28;8861;-75
2023/03/12 14:49:04;;;;;;;;;2.25;1.00;;;;;;;;4975660;28;8861;-80
2023/03/12 14:51:36;;;;;;;;;2.00;2.00;;;;;;;;4970511;28;8886;-75
2023/03/12 14:54:04;;;;;;;;;0.25;0.25;;;;;;;;4976362;28;8871;-76
2023/03/12 14:56:34;;;;;;;;;1.00;1.00;;;;;;;;4962131;28;8869;-72
2023/03/12 14:59:19;;;;;;;;;6.75;3.50;;;;;;;;4977515;28;8853;-73
2023/03/12 15:01:47;;;;;;;;;1.25;1.25;;;;;;;;4974059;28;9600;-74
2023/03/12 15:04:18;;;;;;;;;1.00;1.00;;;;;;;;4973796;28;8846;-74
2023/03/12 15:06:48;;;;;;;;;3.00;1.00;;;;;;;;4980162;28;8954;-74